createdAt,value
2018-12-27T00:00:23.197Z,25.50
2018-12-27T00:02:54.966Z,24.50
2018-12-27T00:05:23.000Z,24.77
2018-12-27T00:07:52.052Z,24.33
2018-12-27T00:10:21.265Z,23.97
2018-12-27T00:12:50.277Z,25.03
2018-12-27T00:15:19.497Z,24.20
2018-12-27T00:17:48.496Z,24.47
2018-12-27T00:20:17.546Z,23.97
2018-12-27T00:22:46.580Z,24.37
2018-12-27T00:25:17.302Z,24.50
2018-12-27T00:27:46.374Z,23.37
2018-12-27T00:30:15.957Z,23.23
2018-12-27T00:32:45.172Z,24.37
2018-12-27T00:35:14.686Z,24.50
2018-12-27T00:37:43.800Z,24.30
2018-12-27T00:40:12.968Z,25.20
2018-12-27T00:42:42.153Z,25.30
2018-12-27T00:45:11.345Z,23.20
2018-12-27T00:47:40.493Z,24.17
2018-12-27T00:50:09.656Z,24.20
2018-12-27T00:52:38.840Z,24.17
2018-12-27T00:55:08.027Z,24.27
2018-12-27T00:57:37.178Z,23.30
2018-12-27T01:00:07.509Z,23.87
2018-12-27T01:02:37.237Z,23.97
2018-12-27T01:05:06.381Z,25.03
2018-12-27T01:07:35.510Z,24.17
2018-12-27T01:10:04.710Z,24.13
2018-12-27T01:12:33.876Z,24.53
2018-12-27T01:15:03.062Z,24.33
2018-12-27T01:17:32.257Z,23.67
2018-12-27T01:20:01.430Z,24.07
2018-12-27T01:22:30.645Z,25.23
2018-12-27T01:24:59.877Z,23.73
2018-12-27T01:27:29.057Z,24.60
2018-12-27T01:29:58.220Z,23.77
2018-12-27T01:32:27.426Z,23.20
2018-12-27T01:34:56.613Z,23.73
2018-12-27T01:37:25.793Z,23.00
2018-12-27T01:39:54.957Z,22.47
2018-12-27T01:42:24.113Z,23.63
2018-12-27T01:44:53.266Z,21.37
2018-12-27T01:47:22.459Z,22.80
2018-12-27T01:49:51.634Z,22.40
2018-12-27T01:52:20.835Z,20.10
2018-12-27T01:54:50.003Z,22.03
2018-12-27T01:57:19.120Z,21.87
2018-12-27T01:59:48.318Z,22.03
2018-12-27T02:02:17.561Z,21.70
2018-12-27T02:04:46.720Z,21.60
2018-12-27T02:07:15.876Z,21.80
2018-12-27T02:09:45.422Z,21.80
2018-12-27T02:12:14.565Z,20.53
2018-12-27T02:14:43.745Z,22.27
2018-12-27T02:17:12.936Z,21.33
2018-12-27T02:19:42.459Z,20.93
2018-12-27T02:22:11.613Z,21.40
2018-12-27T02:24:40.842Z,20.77
2018-12-27T02:27:10.037Z,20.70
2018-12-27T02:29:39.229Z,21.23
2018-12-27T02:32:08.416Z,19.13
2018-12-27T02:34:37.558Z,19.87
2018-12-27T02:37:06.698Z,19.60
2018-12-27T02:39:35.893Z,18.10
2018-12-27T02:42:05.054Z,18.57
2018-12-27T02:44:35.147Z,18.77
2018-12-27T02:47:04.325Z,17.40
2018-12-27T02:49:33.499Z,16.93
2018-12-27T02:52:02.690Z,16.07
2018-12-27T02:54:31.882Z,15.63
2018-12-27T02:57:01.102Z,15.63
2018-12-27T02:59:30.293Z,14.93
2018-12-27T03:01:59.517Z,15.87
2018-12-27T03:04:28.712Z,17.00
2018-12-27T03:06:57.898Z,16.40
2018-12-27T03:09:27.045Z,15.37
2018-12-27T03:11:56.371Z,15.70
2018-12-27T03:14:25.573Z,16.00
2018-12-27T03:16:54.824Z,17.00
2018-12-27T03:19:24.104Z,17.20
2018-12-27T03:21:53.324Z,16.90
2018-12-27T03:24:22.499Z,17.43
2018-12-27T03:26:51.669Z,18.67
2018-12-27T03:29:20.897Z,17.90
2018-12-27T03:31:51.127Z,18.20
2018-12-27T03:34:20.288Z,17.67
2018-12-27T03:36:49.494Z,19.30
2018-12-27T03:39:18.710Z,17.33
2018-12-27T03:41:47.876Z,17.27
2018-12-27T03:44:17.047Z,16.00
2018-12-27T03:46:46.231Z,14.97
2018-12-27T03:49:15.423Z,17.33
2018-12-27T03:51:44.584Z,16.17
2018-12-27T03:54:13.798Z,14.87
2018-12-27T03:56:42.979Z,14.37
2018-12-27T03:59:12.130Z,13.83
2018-12-27T04:01:41.448Z,14.73
2018-12-27T04:04:10.688Z,14.80
2018-12-27T04:06:39.857Z,16.07
2018-12-27T04:09:09.032Z,16.03
2018-12-27T04:11:38.232Z,14.87
2018-12-27T04:14:07.424Z,15.57
2018-12-27T04:16:36.446Z,16.80
2018-12-27T04:19:05.536Z,15.80
2018-12-27T04:21:34.673Z,16.47
2018-12-27T04:24:04.332Z,15.97
2018-12-27T04:26:33.436Z,15.80
2018-12-27T04:29:02.590Z,14.47
2018-12-27T04:31:32.233Z,15.33
2018-12-27T04:34:09.520Z,16.50
2018-12-27T04:36:34.074Z,16.97
2018-12-27T04:39:03.430Z,17.07
2018-12-27T04:41:32.672Z,17.77
2018-12-27T04:44:01.963Z,17.20
2018-12-27T04:46:30.945Z,18.90
2018-12-27T04:48:59.990Z,18.07
2018-12-27T04:51:49.910Z,17.53
2018-12-27T04:54:19.014Z,18.10
2018-12-27T04:56:48.068Z,16.97
2018-12-27T04:59:17.085Z,16.40
2018-12-27T05:01:46.205Z,16.70
2018-12-27T05:04:18.370Z,17.17
2018-12-27T05:06:45.925Z,17.47
2018-12-27T05:09:14.910Z,18.17
2018-12-27T05:11:44.002Z,18.27
2018-12-27T05:14:13.000Z,18.03
2018-12-27T05:16:42.262Z,18.97
2018-12-27T05:19:11.256Z,18.40
2018-12-27T05:21:40.279Z,17.63
2018-12-27T05:24:09.365Z,16.30
2018-12-27T05:26:38.425Z,17.77
2018-12-27T05:29:07.574Z,15.73
2018-12-27T05:31:36.642Z,15.13
2018-12-27T05:34:05.686Z,14.80
2018-12-27T05:36:34.711Z,17.33
2018-12-27T05:39:05.457Z,13.40
2018-12-27T05:41:34.538Z,12.60
2018-12-27T05:44:03.570Z,12.90
2018-12-27T05:46:32.566Z,14.03
2018-12-27T05:49:01.665Z,13.67
2018-12-27T05:51:30.700Z,12.87
2018-12-27T05:53:59.761Z,13.60
2018-12-27T05:56:28.782Z,13.33
2018-12-27T05:58:57.918Z,14.00
2018-12-27T06:01:27.053Z,14.57
2018-12-27T06:03:56.093Z,12.77
2018-12-27T06:06:25.167Z,12.77
2018-12-27T06:08:56.156Z,13.40
2018-12-27T06:11:25.120Z,12.87
2018-12-27T06:13:54.241Z,13.63
2018-12-27T06:16:23.206Z,14.43
2018-12-27T06:18:52.198Z,13.50
2018-12-27T06:21:21.196Z,14.60
2018-12-27T06:23:50.205Z,14.03
2018-12-27T06:26:19.200Z,13.83
2018-12-27T06:28:48.512Z,13.90
2018-12-27T06:31:17.577Z,13.07
2018-12-27T06:33:46.568Z,13.57
2018-12-27T06:36:15.658Z,13.63
2018-12-27T06:38:44.649Z,13.10
2018-12-27T06:41:13.982Z,13.83
2018-12-27T06:43:42.972Z,13.10
2018-12-27T06:46:11.984Z,13.27
2018-12-27T06:48:41.085Z,13.93
2018-12-27T06:51:10.129Z,13.07
2018-12-27T06:53:39.188Z,13.37
2018-12-27T06:56:08.320Z,12.97
2018-12-27T06:58:37.809Z,13.83
2018-12-27T07:01:07.110Z,13.27
2018-12-27T07:03:36.118Z,13.70
2018-12-27T07:06:05.213Z,13.60
2018-12-27T07:08:34.205Z,13.57
2018-12-27T07:11:03.217Z,13.30
2018-12-27T07:13:32.235Z,13.50
2018-12-27T07:16:01.248Z,13.23
2018-12-27T07:18:30.312Z,13.87
2018-12-27T07:20:59.351Z,13.37
2018-12-27T07:23:28.353Z,13.70
2018-12-27T07:25:57.393Z,14.10
2018-12-27T07:28:26.592Z,14.73
2018-12-27T07:30:55.616Z,13.20
2018-12-27T07:33:24.862Z,13.73
2018-12-27T07:35:53.910Z,13.60
2018-12-27T07:38:23.006Z,13.23
2018-12-27T07:40:52.031Z,13.03
2018-12-27T07:43:21.217Z,14.13
2018-12-27T07:45:50.353Z,14.17
2018-12-27T07:48:19.349Z,13.57
2018-12-27T07:50:48.415Z,13.60
2018-12-27T07:53:17.538Z,13.37
2018-12-27T07:55:46.686Z,14.27
2018-12-27T07:58:15.769Z,13.53
2018-12-27T08:00:44.763Z,13.87
2018-12-27T08:03:13.897Z,14.83
2018-12-27T08:05:42.999Z,15.03
2018-12-27T08:08:12.093Z,15.43
2018-12-27T08:10:41.148Z,14.93
2018-12-27T08:13:10.186Z,15.47
2018-12-27T08:15:39.249Z,14.83
2018-12-27T08:18:08.498Z,14.80
2018-12-27T08:20:37.533Z,14.70
2018-12-27T08:23:06.629Z,15.03
2018-12-27T08:25:35.653Z,14.80
2018-12-27T08:28:04.690Z,16.50
2018-12-27T08:30:33.815Z,15.90
2018-12-27T08:33:02.908Z,16.00
2018-12-27T08:35:31.897Z,16.00
2018-12-27T08:38:00.926Z,15.47
2018-12-27T08:40:29.941Z,16.27
2018-12-27T08:42:58.976Z,16.63
2018-12-27T08:45:28.068Z,16.80
2018-12-27T08:47:57.182Z,16.67
2018-12-27T08:50:26.251Z,15.83
2018-12-27T08:52:57.190Z,16.27
2018-12-27T08:55:26.249Z,16.87
2018-12-27T08:57:56.508Z,17.17
2018-12-27T09:00:25.449Z,16.70
2018-12-27T09:02:54.492Z,17.70
2018-12-27T09:05:23.489Z,18.33
2018-12-27T09:07:52.590Z,16.63
2018-12-27T09:10:22.704Z,17.90
2018-12-27T09:12:51.773Z,18.40
2018-12-27T09:15:20.809Z,18.77
2018-12-27T09:17:49.900Z,17.77
2018-12-27T09:20:19.056Z,18.37
2018-12-27T09:22:48.139Z,18.77
2018-12-27T09:25:18.344Z,17.33
2018-12-27T09:27:47.738Z,17.97
2018-12-27T09:30:16.764Z,18.83
2018-12-27T09:32:46.200Z,18.80
2018-12-27T09:35:15.330Z,18.00
2018-12-27T09:37:44.497Z,18.43
2018-12-27T09:40:13.749Z,19.90
2018-12-27T09:42:42.822Z,19.57
2018-12-27T09:45:12.121Z,19.90
2018-12-27T09:47:41.133Z,19.03
2018-12-27T09:50:10.346Z,19.03
2018-12-27T09:52:39.553Z,19.43
2018-12-27T09:55:08.596Z,20.50
2018-12-27T09:57:37.774Z,19.33
2018-12-27T10:00:07.703Z,21.00
2018-12-27T10:02:36.747Z,19.70
2018-12-27T10:05:06.196Z,21.10
2018-12-27T10:07:35.450Z,19.30
2018-12-27T10:10:04.749Z,19.27
2018-12-27T10:12:33.898Z,19.93
2018-12-27T10:15:02.984Z,19.90
2018-12-27T10:17:32.069Z,18.97
2018-12-27T10:20:01.071Z,19.43
2018-12-27T10:22:30.058Z,21.03
2018-12-27T10:24:59.209Z,19.47
2018-12-27T10:27:28.320Z,19.53
2018-12-27T10:29:57.347Z,19.27
2018-12-27T10:32:26.387Z,19.53
2018-12-27T10:34:55.709Z,19.80
2018-12-27T10:37:24.815Z,19.20
2018-12-27T10:39:53.877Z,19.87
2018-12-27T10:42:22.958Z,18.13
2018-12-27T10:44:52.164Z,18.50
2018-12-27T10:47:21.231Z,18.87
2018-12-27T10:49:50.491Z,18.83
2018-12-27T10:52:19.770Z,16.73
2018-12-27T10:54:48.952Z,17.77
2018-12-27T10:57:18.224Z,17.50
2018-12-27T10:59:47.447Z,18.07
2018-12-27T11:02:16.670Z,17.50
2018-12-27T11:04:45.816Z,17.07
2018-12-27T11:07:14.922Z,17.27
2018-12-27T11:09:44.086Z,16.97
2018-12-27T11:12:13.184Z,18.13
2018-12-27T11:14:42.213Z,18.77
2018-12-27T11:17:11.233Z,16.50
2018-12-27T11:19:40.725Z,16.80
2018-12-27T11:22:09.836Z,17.20
2018-12-27T11:24:41.991Z,16.87
2018-12-27T11:27:11.260Z,16.93
2018-12-27T11:29:40.437Z,18.23
2018-12-27T11:32:10.897Z,16.17
2018-12-27T11:34:39.914Z,16.60
2018-12-27T11:37:09.089Z,16.17
2018-12-27T11:39:38.140Z,17.57
2018-12-27T11:42:07.194Z,16.87
2018-12-27T11:44:36.340Z,15.93
2018-12-27T11:47:05.534Z,16.57
2018-12-27T11:49:34.537Z,16.10
2018-12-27T11:52:03.731Z,16.97
2018-12-27T11:54:32.816Z,17.27
2018-12-27T11:57:01.956Z,15.70
2018-12-27T11:59:31.063Z,15.07
2018-12-27T12:02:00.317Z,16.37
2018-12-27T12:04:29.752Z,15.37
2018-12-27T12:06:59.045Z,15.23
2018-12-27T12:09:28.323Z,16.13
2018-12-27T12:11:57.430Z,15.60
2018-12-27T12:14:27.836Z,15.30
2018-12-27T12:16:57.955Z,15.37
2018-12-27T12:19:27.155Z,15.70
2018-12-27T12:21:56.315Z,16.33
2018-12-27T12:24:25.436Z,14.60
2018-12-27T12:26:54.552Z,15.73
2018-12-27T12:29:23.661Z,15.30
2018-12-27T12:31:52.960Z,16.03
2018-12-27T12:34:22.171Z,14.67
2018-12-27T12:36:51.661Z,14.70
2018-12-27T12:39:21.140Z,13.63
2018-12-27T12:41:50.191Z,14.43
2018-12-27T12:44:19.314Z,14.07
2018-12-27T12:46:48.582Z,13.90
2018-12-27T12:49:17.626Z,13.50
2018-12-27T12:51:46.772Z,12.60
2018-12-27T12:54:16.006Z,13.30
2018-12-27T12:56:45.105Z,13.50
2018-12-27T12:59:14.158Z,13.33
2018-12-27T13:01:43.355Z,13.10
2018-12-27T13:04:13.707Z,13.10
2018-12-27T13:06:42.753Z,12.60
2018-12-27T13:09:11.833Z,12.47
2018-12-27T13:11:40.946Z,12.97
2018-12-27T13:14:09.973Z,13.27
2018-12-27T13:16:39.341Z,12.27
2018-12-27T13:19:08.458Z,12.90
2018-12-27T13:21:37.444Z,12.63
2018-12-27T13:24:06.478Z,12.40
2018-12-27T13:26:35.485Z,12.47
2018-12-27T13:29:04.588Z,12.70
2018-12-27T13:31:33.618Z,12.37
2018-12-27T13:34:02.653Z,12.77
2018-12-27T13:36:31.903Z,13.33
2018-12-27T13:39:00.950Z,12.67
2018-12-27T13:41:29.981Z,13.47
2018-12-27T13:43:58.979Z,13.30
2018-12-27T13:46:28.064Z,14.40
2018-12-27T13:48:57.073Z,13.07
2018-12-27T13:51:26.048Z,13.70
2018-12-27T13:53:55.147Z,13.50
2018-12-27T13:56:24.244Z,12.87
2018-12-27T13:58:53.349Z,12.77
2018-12-27T14:01:22.514Z,13.63
2018-12-27T14:03:51.600Z,13.07
2018-12-27T14:06:20.836Z,12.50
2018-12-27T14:08:49.863Z,12.33
2018-12-27T14:11:19.842Z,12.67
2018-12-27T14:13:56.387Z,11.73
2018-12-27T14:16:25.468Z,12.13
2018-12-27T14:18:54.525Z,12.27
2018-12-27T14:21:23.558Z,11.93
2018-12-27T14:23:52.596Z,11.90
2018-12-27T14:26:21.577Z,12.77
2018-12-27T14:28:50.682Z,11.50
2018-12-27T14:31:19.753Z,11.43
2018-12-27T14:33:48.810Z,12.80
2018-12-27T14:36:17.938Z,12.13
2018-12-27T14:38:47.029Z,13.47
2018-12-27T14:41:16.128Z,12.20
2018-12-27T14:43:45.202Z,12.90
2018-12-27T14:46:14.362Z,12.43
2018-12-27T14:48:43.417Z,12.40
2018-12-27T14:51:12.586Z,13.20
2018-12-27T14:53:41.684Z,13.23
2018-12-27T14:56:10.776Z,13.40
2018-12-27T14:58:39.846Z,13.93
2018-12-27T15:01:08.867Z,13.83
2018-12-27T15:03:37.842Z,14.67
2018-12-27T15:06:06.941Z,14.60
2018-12-27T15:08:35.955Z,15.20
2018-12-27T15:11:05.124Z,14.60
2018-12-27T15:13:34.303Z,13.30
2018-12-27T15:16:03.350Z,16.20
2018-12-27T15:18:32.532Z,15.97
2018-12-27T15:21:01.590Z,14.30
2018-12-27T15:23:30.700Z,14.80
2018-12-27T15:25:59.853Z,14.50
2018-12-27T15:28:28.951Z,14.33
2018-12-27T15:30:58.085Z,15.30
2018-12-27T15:33:27.123Z,15.47
2018-12-27T15:35:56.270Z,16.27
2018-12-27T15:38:27.116Z,17.27
2018-12-27T15:40:56.345Z,16.57
2018-12-27T15:43:25.370Z,17.47
2018-12-27T15:45:55.806Z,16.07
2018-12-27T15:48:24.922Z,17.10
2018-12-27T15:50:53.996Z,15.63
2018-12-27T15:53:23.186Z,17.17
2018-12-27T15:55:52.289Z,17.10
2018-12-27T15:58:21.313Z,16.73
2018-12-27T16:00:50.458Z,16.70
2018-12-27T16:03:19.688Z,16.90
2018-12-27T16:05:48.718Z,17.57
2018-12-27T16:08:17.786Z,17.60
2018-12-27T16:10:46.886Z,16.33
2018-12-27T16:13:15.924Z,17.53
2018-12-27T16:15:45.003Z,17.67
2018-12-27T16:18:14.050Z,17.33
2018-12-27T16:20:43.137Z,16.23
2018-12-27T16:23:12.228Z,17.17
2018-12-27T16:25:41.329Z,17.10
2018-12-27T16:28:10.438Z,17.00
2018-12-27T16:30:39.595Z,18.53
2018-12-27T16:33:08.734Z,17.63
2018-12-27T16:35:37.927Z,19.30
2018-12-27T16:38:07.080Z,19.70
2018-12-27T16:40:36.267Z,18.93
2018-12-27T16:43:05.543Z,17.87
2018-12-27T16:45:34.679Z,17.93
2018-12-27T16:48:03.759Z,18.50
2018-12-27T16:50:32.801Z,17.97
2018-12-27T16:53:01.945Z,18.20
2018-12-27T16:55:30.991Z,17.50
2018-12-27T16:58:00.095Z,16.80
2018-12-27T17:00:29.221Z,16.47
2018-12-27T17:02:58.349Z,17.13
2018-12-27T17:05:28.876Z,16.53
2018-12-27T17:07:57.982Z,16.93
2018-12-27T17:10:27.047Z,17.73
2018-12-27T17:12:56.163Z,15.90
2018-12-27T17:15:25.262Z,16.43
2018-12-27T17:17:54.297Z,15.53
2018-12-27T17:20:23.451Z,16.13
2018-12-27T17:22:52.573Z,16.17
2018-12-27T17:25:21.801Z,16.67
2018-12-27T17:27:51.698Z,17.73
2018-12-27T17:30:20.925Z,16.60
2018-12-27T17:32:50.087Z,16.10
2018-12-27T17:35:19.178Z,17.43
2018-12-27T17:37:48.285Z,17.40
2018-12-27T17:40:17.538Z,16.37
2018-12-27T17:42:46.545Z,17.80
2018-12-27T17:45:15.639Z,16.07
2018-12-27T17:47:44.667Z,15.97
2018-12-27T17:50:13.862Z,16.47
2018-12-27T17:52:42.915Z,18.47
2018-12-27T17:55:12.045Z,16.83
2018-12-27T17:57:42.821Z,16.47
2018-12-27T18:00:11.981Z,16.77
2018-12-27T18:02:41.053Z,15.93
2018-12-27T18:05:10.123Z,16.73
2018-12-27T18:07:39.298Z,16.40
2018-12-27T18:10:08.710Z,16.60
2018-12-27T18:12:37.768Z,16.63
2018-12-27T18:15:07.410Z,17.30
2018-12-27T18:17:36.497Z,16.63
2018-12-27T18:20:06.385Z,17.87
2018-12-27T18:22:35.433Z,17.60
2018-12-27T18:25:04.609Z,17.73
2018-12-27T18:27:33.657Z,17.33
2018-12-27T18:30:04.073Z,17.77
2018-12-27T18:32:33.118Z,19.17
2018-12-27T18:35:02.121Z,19.07
2018-12-27T18:37:37.515Z,17.80
2018-12-27T18:40:02.964Z,17.07
2018-12-27T18:42:32.080Z,18.83
2018-12-27T18:45:01.113Z,17.83
2018-12-27T18:47:30.257Z,17.63
2018-12-27T18:49:59.609Z,17.97
2018-12-27T18:52:28.684Z,19.33
2018-12-27T18:54:57.771Z,18.77
2018-12-27T18:57:26.904Z,18.10
2018-12-27T18:59:56.077Z,17.27
2018-12-27T19:02:25.228Z,18.60
2018-12-27T19:04:54.513Z,17.70
2018-12-27T19:07:23.617Z,18.73
2018-12-27T19:09:52.827Z,17.77
2018-12-27T19:12:58.233Z,17.73
2018-12-27T19:15:29.360Z,17.77
2018-12-27T19:18:22.330Z,18.27
2018-12-27T19:21:13.805Z,17.80
2018-12-27T19:23:42.950Z,15.93
2018-12-27T19:26:13.102Z,17.70
2018-12-27T19:28:42.341Z,16.30
2018-12-27T19:31:11.389Z,17.57
2018-12-27T19:33:40.558Z,18.57
2018-12-27T19:36:09.766Z,19.23
2018-12-27T19:38:38.809Z,17.90
2018-12-27T19:41:07.825Z,17.30
2018-12-27T19:43:37.216Z,18.23
2018-12-27T19:46:06.457Z,17.43
2018-12-27T19:48:35.546Z,17.70
2018-12-27T19:51:04.753Z,17.03
2018-12-27T19:53:33.876Z,18.63
2018-12-27T19:56:03.072Z,19.40
2018-12-27T19:58:32.323Z,19.20
2018-12-27T20:01:01.501Z,19.17
2018-12-27T20:03:30.646Z,20.40
2018-12-27T20:05:59.633Z,19.83
2018-12-27T20:08:28.810Z,19.97
2018-12-27T20:10:57.934Z,19.13
2018-12-27T20:13:26.949Z,17.53
2018-12-27T20:15:55.972Z,18.23
2018-12-27T20:18:25.041Z,17.83
2018-12-27T20:20:55.190Z,17.80
2018-12-27T20:23:24.273Z,17.77
2018-12-27T20:25:53.479Z,18.33
2018-12-27T20:28:22.549Z,18.10
2018-12-27T20:30:51.659Z,17.77
2018-12-27T20:33:20.735Z,18.20
2018-12-27T20:35:49.826Z,17.57
2018-12-27T20:38:25.357Z,18.17
2018-12-27T20:41:00.227Z,18.53
2018-12-27T20:43:32.225Z,15.70
2018-12-27T20:46:04.384Z,18.07
2018-12-27T20:48:36.398Z,19.17
2018-12-27T20:51:14.338Z,17.57
2018-12-27T20:53:47.689Z,19.20
2018-12-27T20:56:22.124Z,18.20
2018-12-27T20:58:55.715Z,18.23
2018-12-27T21:01:28.543Z,18.27
2018-12-27T21:04:00.241Z,18.87
2018-12-27T21:06:32.127Z,18.27
2018-12-27T21:09:04.857Z,18.27
2018-12-27T21:11:37.966Z,18.00
2018-12-27T21:14:08.198Z,19.63
2018-12-27T21:16:39.546Z,19.90
2018-12-27T21:19:11.052Z,19.13
2018-12-27T21:21:41.966Z,18.63
2018-12-27T21:24:12.840Z,20.07
2018-12-27T21:26:43.350Z,19.70
2018-12-27T21:29:16.698Z,18.90
2018-12-27T21:31:48.789Z,17.83
2018-12-27T21:34:23.113Z,18.97
2018-12-27T21:36:54.329Z,20.53
2018-12-27T21:39:29.206Z,18.47
2018-12-27T21:42:01.240Z,19.77
2018-12-27T21:44:36.385Z,19.37
2018-12-27T21:47:09.264Z,19.23
2018-12-27T21:49:40.719Z,19.60
2018-12-27T21:52:10.672Z,19.63
2018-12-27T21:54:43.135Z,20.20
2018-12-27T21:57:12.324Z,18.20
2018-12-27T21:59:41.459Z,19.90
2018-12-27T22:02:10.650Z,17.53
2018-12-27T22:04:39.727Z,19.50
2018-12-27T22:07:08.797Z,18.93
2018-12-27T22:09:37.895Z,19.07
2018-12-27T22:12:07.079Z,21.20
2018-12-27T22:14:36.179Z,19.67
2018-12-27T22:17:05.555Z,19.47
2018-12-27T22:19:35.206Z,20.80
2018-12-27T22:22:04.373Z,20.57
2018-12-27T22:24:33.441Z,24.07
2018-12-27T22:27:02.478Z,22.70
2018-12-27T22:29:31.654Z,20.23
2018-12-27T22:32:00.776Z,20.77
2018-12-27T22:34:29.906Z,19.90
2018-12-27T22:36:59.798Z,19.43
2018-12-27T22:39:29.156Z,21.10
2018-12-27T22:41:59.050Z,19.63
2018-12-27T22:44:28.054Z,20.17
2018-12-27T22:46:57.098Z,20.67
2018-12-27T22:49:26.184Z,20.83
2018-12-27T22:51:55.298Z,21.23
2018-12-27T22:54:24.333Z,21.60
2018-12-27T22:56:53.779Z,21.77
2018-12-27T22:59:23.031Z,21.63
2018-12-27T23:01:52.215Z,21.37
2018-12-27T23:04:21.626Z,21.77
2018-12-27T23:06:50.850Z,22.27
2018-12-27T23:09:19.999Z,22.13
2018-12-27T23:11:49.185Z,20.93
2018-12-27T23:14:18.422Z,23.53
2018-12-27T23:16:47.437Z,25.20
2018-12-27T23:19:16.462Z,24.37
2018-12-27T23:21:47.461Z,26.07
2018-12-27T23:24:16.429Z,26.53
2018-12-27T23:26:45.477Z,25.50
2018-12-27T23:29:14.527Z,24.80
2018-12-27T23:31:43.600Z,25.23
2018-12-27T23:34:12.619Z,25.13
2018-12-27T23:36:41.817Z,23.33
2018-12-27T23:39:10.946Z,22.87
2018-12-27T23:41:40.388Z,23.67
2018-12-27T23:44:09.730Z,23.00
2018-12-27T23:46:38.842Z,24.17
2018-12-27T23:49:08.047Z,23.43
2018-12-27T23:51:37.325Z,22.37
2018-12-27T23:54:06.505Z,21.80
2018-12-27T23:56:37.044Z,20.83
2018-12-27T23:59:06.242Z,21.70
